Elbe, Washington
Current Conditions -  °F | °C
As of 1:58 PM on Sunday 23 Nov 2014 (Local Time) from KGRF Reporting Station
Few Clouds Few Clouds  
Wind Chill: 53°   Ceiling: Unl
Heat Index: 53°   Visibility: 10mi
Dew Point: 45°   Wind: 7mph
Humidity: 75%   Direction: 220°SW
Pressure: 30.17"   Gusts: NA
Location:  46.76°N, 122.2°W
Report Text: KGRF 232158Z AUTO 22006KT 10SM FEW050 11/07 A3017 RMK AO2 SLP221 T01140071 PWINO $
Loading
Personal Weather Stations






























Interactive Weather Map New forecast layout! Learn more

10-Day Weather Forecast

Advertisements
Track Severe Weather on mobile